Pont Aven — FNPN — position and weather

sailwx.info

Track history (hours):
 
Tides and Currents Weather Stations Pressure Air Temp Water Temp Dewpoint Dewpoint Depression Visibility Wind Speed Wind Dir Waves Ship Positions

Pont Aven

Last reported at 2018-Aug-15 11:16 UTC. Time now 2018-Aug-15 14:50 UTC.
Position N 45°13' W 004°17'.

Length 185 m; beam 31 m.

Type: Passenger vessel. MMSI: 228183600.

Date/timePositionNaut miles runAvg speedWind from/ knotsBaromVisibWave heightAir tempDewpointWater temp
2018-Aug-15 11:16N 45°13' W 004°17'17523.1
2018-Aug-15 03:43N 48°04' W 005°10'420.2
2018-Aug-15 03:30N 48°08' W 005°09'1121.3
2018-Aug-15 03:00N 48°19' W 005°08'918.2
2018-Aug-15 02:31N 48°27' W 005°01'1020.1
2018-Aug-15 02:00N 48°34' W 004°51'1224.0
2018-Aug-15 01:31N 48°43' W 004°39'1425.1
2018-Aug-15 00:58N 48°53' W 004°25'3724.1
2018-Aug-14 23:25N 49°21' W 003°47'1022.5
2018-Aug-14 22:58N 49°28' W 003°36'1022.2
2018-Aug-14 22:30N 49°36' W 003°26'1121.3
2018-Aug-14 21:59N 49°45' W 003°15'1020.4
2018-Aug-14 21:31N 49°51' W 003°04'1020.0
2018-Aug-14 21:01N 49°58' W 002°52'1020.3
2018-Aug-14 20:30N 50°01' W 002°37'6122.0
2018-Aug-14 17:43N 50°32' W 001°14'523.5
2018-Aug-14 17:31N 50°35' W 001°08'1018.9
2018-Aug-14 17:00N 50°43' W 000°60'714.2
2018-Aug-14 16:30N 50°49' W 001°07'0 0.8
2018-Aug-14 16:00N 50°49' W 001°06'0 0.0
2018-Aug-14 15:30N 50°49' W 001°06'0 0.0
2018-Aug-14 15:00N 50°49' W 001°06'0 0.0
2018-Aug-14 14:30N 50°49' W 001°06'0 0.0
2018-Aug-14 14:00N 50°49' W 001°06'0 0.0
2018-Aug-14 13:30N 50°49' W 001°06'1 1.7
2018-Aug-14 13:00N 50°48' W 001°07'612.2
2018-Aug-14 12:31N 50°43' W 001°03'917.7
2018-Aug-14 12:00N 50°35' W 001°09'11025.5
2018-Aug-14 07:41N 49°29' W 003°27'4925.2
2018-Aug-14 05:43N 48°54' W 004°21'925.4
2018-Aug-14 05:22N 48°48' W 004°31'925.9
2018-Aug-14 05:01N 48°42' W 004°42'1325.9
2018-Aug-14 04:30N 48°32' W 004°54'918.8
2018-Aug-14 04:01N 48°25' W 005°04'1223.5
2018-Aug-14 03:30N 48°14' W 005°08'1325.1
2018-Aug-14 03:00N 48°01' W 005°09'1224.5
2018-Aug-14 02:30N 47°49' W 005°06'1323.1
2018-Aug-14 01:57N 47°37' W 005°02'1022.9
2018-Aug-14 01:29N 47°26' W 004°58'1523.2
2018-Aug-14 00:51N 47°12' W 004°53'2322.7
2018-Aug-13 23:51N 46°50' W 004°43'822.9
2018-Aug-13 23:29N 46°42' W 004°41'1322.7
2018-Aug-13 22:54N 46°29' W 004°37'1121.9
2018-Aug-13 22:24N 46°18' W 004°34'1021.4
2018-Aug-13 21:57N 46°09' W 004°31'14821.9
2018-Aug-13 15:12N 43°44' W 003°48'519.3
2018-Aug-13 14:55N 43°39' W 003°47'7 1.6
2018-Aug-13 10:11N 43°32' W 003°45'423.5
2018-Aug-13 10:00N 43°36' W 003°46'27623.0
2018-Aug-12 22:00N 48°05' W 005°11'1224.4
2018-Aug-12 21:30N 48°17' W 005°08'1121.2
2018-Aug-12 21:01N 48°27' W 005°02'1020.6
2018-Aug-12 20:31N 48°36' W 004°55'1223.7
2018-Aug-12 20:00N 48°47' W 004°49'9121.8
2018-Aug-12 15:51N 50°14' W 004°12'618.0
2018-Aug-12 15:31N 50°20' W 004°09'1 2.8
2018-Aug-12 15:00N 50°22' W 004°09'0 0.0
2018-Aug-12 14:30N 50°22' W 004°09'0 0.0
2018-Aug-12 14:00N 50°22' W 004°09'0 0.0
2018-Aug-12 13:30N 50°22' W 004°09'0 0.0
2018-Aug-12 13:00N 50°22' W 004°09'0 0.7
2018-Aug-12 12:30N 50°22' W 004°09'713.3
2018-Aug-12 11:58N 50°14' W 004°10'1122.8
2018-Aug-12 11:29N 50°03' W 004°07'2022.2
2018-Aug-12 10:36N 49°44' W 004°06'6010.0
2018-Aug-12 04:36N 48°44' W 003°57'114.3
2018-Aug-12 04:31N 48°45' W 003°57'918.8
2018-Aug-12 04:00N 48°52' W 004°06'1321.9
2018-Aug-12 03:25N 49°01' W 004°21'1521.9
2018-Aug-12 02:44N 49°11' W 004°38'19019.2
2018-Aug-11 16:49N 51°33' W 007°57'619.9
2018-Aug-11 16:31N 51°37' W 008°03'1019.7
2018-Aug-11 16:01N 51°44' W 008°14'612.1
2018-Aug-11 15:30N 51°50' W 008°16'2 4.6
2018-Aug-11 15:00N 51°50' W 008°19'0 0.0
2018-Aug-11 14:30N 51°50' W 008°19'0 0.0
2018-Aug-11 14:00N 51°50' W 008°19'0 0.0
2018-Aug-11 13:30N 51°50' W 008°19'0 0.0
2018-Aug-11 13:00N 51°50' W 008°19'0 0.0
2018-Aug-11 12:30N 51°50' W 008°19'0 0.0
2018-Aug-11 12:00N 51°50' W 008°19'0 0.0
2018-Aug-11 11:30N 51°50' W 008°19'0 0.0
2018-Aug-11 11:00N 51°50' W 008°19'0 0.0
2018-Aug-11 10:30N 51°50' W 008°19'0 0.0
2018-Aug-11 10:00N 51°50' W 008°19'0 0.0
2018-Aug-11 09:30N 51°50' W 008°19'0 0.0
2018-Aug-11 09:00N 51°50' W 008°19'0 0.0
2018-Aug-11 08:30N 51°50' W 008°19'1 2.5
2018-Aug-11 08:00N 51°51' W 008°18'4 7.8
2018-Aug-11 07:31N 51°47' W 008°16'1019.7
2018-Aug-11 07:01N 51°39' W 008°07'1020.7
2018-Aug-11 06:30N 51°32' W 007°54'1020.4
2018-Aug-11 06:01N 51°25' W 007°42'9220.2
2018-Aug-11 01:27N 50°22' W 005°57'73 3.0
2018-Aug-10 00:57N 50°01' W 004°07'917.0
2018-Aug-10 00:24N 50°11' W 004°07'3 4.4
2018-Aug-09 23:49N 50°13' W 004°08'0 1.0
2018-Aug-09 23:19N 50°14' W 004°08'0 0.9
2018-Aug-09 22:54N 50°14' W 004°08'1 1.0
2018-Aug-09 22:25N 50°15' W 004°08'4 4.2
2018-Aug-09 21:35N 50°18' W 004°08'0 4.2
2018-Aug-09 21:30N 50°18' W 004°08'1 1.2
2018-Aug-09 21:00N 50°18' W 004°09'1 1.2
2018-Aug-09 20:30N 50°18' W 004°10'3 6.8
2018-Aug-09 20:01N 50°22' W 004°09'0 0.0
2018-Aug-09 19:30N 50°22' W 004°09'0 0.0
2018-Aug-09 19:01N 50°22' W 004°09'0 0.0
2018-Aug-09 18:30N 50°22' W 004°09'0 0.0
2018-Aug-09 18:01N 50°22' W 004°09'0 0.0
2018-Aug-09 17:30N 50°22' W 004°09'0 0.0
2018-Aug-09 17:00N 50°22' W 004°09'0 0.0
2018-Aug-09 16:31N 50°22' W 004°09'0 0.0
2018-Aug-09 16:01N 50°22' W 004°09'1 2.5
2018-Aug-09 15:30N 50°21' W 004°09'918.0
2018-Aug-09 15:00N 50°12' W 004°13'1223.6
2018-Aug-09 14:31N 50°00' W 004°17'7123.7
2018-Aug-09 11:30N 48°52' W 004°49'1223.7
2018-Aug-09 11:01N 48°41' W 004°54'1223.0
2018-Aug-09 10:30N 48°30' W 004°59'815.5
2018-Aug-09 10:01N 48°24' W 005°05'1223.1
2018-Aug-09 09:31N 48°12' W 005°08'1223.2
2018-Aug-09 09:00N 48°01' W 005°09'1122.9
2018-Aug-09 08:30N 47°50' W 005°04'1222.5
2018-Aug-09 07:59N 47°38' W 005°00'24022.4
2018-Aug-08 21:17N 43°43' W 003°48'623.2
2018-Aug-08 21:00N 43°37' W 003°46'5 1.3
2018-Aug-08 16:53N 43°32' W 003°46'1023.0
2018-Aug-08 16:26N 43°42' W 003°49'25923.1
2018-Aug-08 05:15N 47°55' W 005°07'724.4
2018-Aug-08 04:58N 48°01' W 005°09'1123.9
2018-Aug-08 04:31N 48°12' W 005°10'1223.2
2018-Aug-08 04:00N 48°23' W 005°05'917.6
2018-Aug-08 03:31N 48°30' W 004°57'1122.7
2018-Aug-08 03:01N 48°39' W 004°46'1122.1
2018-Aug-08 02:31N 48°46' W 004°33'9122.4
2018-Aug-07 22:26N 49°54' W 002°59'1124.2
2018-Aug-07 21:59N 50°01' W 002°47'6023.9
2018-Aug-07 19:27N 50°30' W 001°24'1022.8
2018-Aug-07 19:00N 50°35' W 001°10'917.4
2018-Aug-07 18:30N 50°42' W 001°03'612.9
2018-Aug-07 18:01N 50°48' W 001°07'1 1.3
2018-Aug-07 17:30N 50°49' W 001°06'0 0.0
2018-Aug-07 17:00N 50°49' W 001°06'0 0.0
2018-Aug-07 16:30N 50°49' W 001°06'0 0.0
2018-Aug-07 16:00N 50°49' W 001°06'0 0.0
2018-Aug-07 15:30N 50°49' W 001°06'0 0.2
2018-Aug-07 15:00N 50°49' W 001°06'2 5.0
2018-Aug-07 14:30N 50°46' W 001°05'815.7
2018-Aug-07 14:01N 50°40' W 000°58'1122.6
2018-Aug-07 13:31N 50°34' W 001°13'1223.3
2018-Aug-07 13:00N 50°27' W 001°29'1122.9
2018-Aug-07 12:30N 50°20' W 001°42'1122.6
2018-Aug-07 12:00N 50°13' W 001°56'1122.3
2018-Aug-07 11:30N 50°06' W 002°10'1122.0
2018-Aug-07 10:59N 49°58' W 002°22'1021.5
2018-Aug-07 10:30N 49°53' W 002°37'1121.4
2018-Aug-07 10:00N 49°47' W 002°51'1121.6
2018-Aug-07 09:30N 49°41' W 003°04'1122.1
2018-Aug-07 09:00N 49°33' W 003°17'1222.3
2018-Aug-07 08:29N 49°26' W 003°30'1122.3
2018-Aug-07 08:00N 49°19' W 003°42'1222.3
2018-Aug-07 07:28N 49°10' W 003°55'1022.2
2018-Aug-07 07:00N 49°03' W 004°06'1222.3
2018-Aug-07 06:29N 48°55' W 004°19'1122.0
2018-Aug-07 05:58N 48°46' W 004°31'1021.6
2018-Aug-07 05:30N 48°40' W 004°42'1121.6
2018-Aug-07 05:00N 48°32' W 004°54'918.2
2018-Aug-07 04:30N 48°26' W 005°03'1020.6
2018-Aug-07 04:00N 48°16' W 005°08'1122.2
2018-Aug-07 03:30N 48°05' W 005°10'1121.6
2018-Aug-07 03:00N 47°54' W 005°09'1121.9
2018-Aug-07 02:30N 47°43' W 005°06'1122.2
2018-Aug-07 02:00N 47°33' W 005°02'1122.1
2018-Aug-07 01:30N 47°22' W 004°58'1122.3
2018-Aug-07 01:00N 47°11' W 004°54'1322.3
2018-Aug-07 00:24N 46°58' W 004°50'922.4
2018-Aug-07 00:00N 46°49' W 004°47'1122.2
2018-Aug-06 23:30N 46°39' W 004°43'1122.6
2018-Aug-06 23:00N 46°28' W 004°39'1122.8
2018-Aug-06 22:30N 46°16' W 004°36'1423.1
2018-Aug-06 21:53N 46°02' W 004°32'1122.8
2018-Aug-06 21:25N 45°52' W 004°28'1023.0
2018-Aug-06 21:00N 45°43' W 004°26'1123.2
2018-Aug-06 20:30N 45°31' W 004°23'1223.5
2018-Aug-06 20:00N 45°20' W 004°19'1223.4
2018-Aug-06 19:31N 45°08' W 004°16'1223.1
2018-Aug-06 19:00N 44°57' W 004°12'1223.2
2018-Aug-06 18:30N 44°46' W 004°08'1123.1
2018-Aug-06 18:01N 44°35' W 004°05'1523.2
2018-Aug-06 17:23N 44°20' W 004°01'1223.1
2018-Aug-06 16:50N 44°08' W 003°56'1123.4
2018-Aug-06 16:21N 43°57' W 003°53'823.3
2018-Aug-06 16:01N 43°49' W 003°51'1223.2
2018-Aug-06 15:30N 43°38' W 003°47'1017.7
2018-Aug-06 14:55N 43°28' W 003°47'1 2.2
2018-Aug-06 14:28N 43°28' W 003°48'0 0.0
2018-Aug-06 14:00N 43°28' W 003°48'0 0.0
2018-Aug-06 13:30N 43°28' W 003°48'0 0.0
2018-Aug-06 13:00N 43°28' W 003°48'0 0.0
2018-Aug-06 12:30N 43°28' W 003°48'0 0.0
2018-Aug-06 12:00N 43°28' W 003°48'4 3.3
2018-Aug-06 10:42N 43°31' W 003°45'422.1
2018-Aug-06 10:30N 43°35' W 003°46'1122.8
2018-Aug-06 10:01N 43°46' W 003°50'1223.2
2018-Aug-06 09:31N 43°58' W 003°54'1223.2
2018-Aug-06 09:00N 44°09' W 003°58'1122.9
2018-Aug-06 08:31N 44°20' W 004°01'1122.9
2018-Aug-06 08:01N 44°31' W 004°04'1223.0
2018-Aug-06 07:30N 44°43' W 004°08'1223.0
2018-Aug-06 07:00N 44°54' W 004°12'1223.4
2018-Aug-06 06:30N 45°05' W 004°16'1223.4
2018-Aug-06 06:00N 45°17' W 004°19'1223.6
2018-Aug-06 05:31N 45°28' W 004°22'1223.4
2018-Aug-06 05:01N 45°40' W 004°26'1223.2
2018-Aug-06 04:31N 45°51' W 004°29'1223.6
2018-Aug-06 04:01N 46°02' W 004°33'1223.8
2018-Aug-06 03:30N 46°14' W 004°36'1223.9
2018-Aug-06 03:00N 46°26' W 004°39'1223.4
2018-Aug-06 02:30N 46°37' W 004°43'1223.6
2018-Aug-06 02:00N 46°49' W 004°47'1723.4
2018-Aug-06 01:16N 47°06' W 004°53'3923.8
2018-Aug-05 23:39N 47°43' W 005°04'323.8
2018-Aug-05 23:30N 47°47' W 005°05'1224.1
2018-Aug-05 23:00N 47°59' W 005°09'1123.1
2018-Aug-05 22:30N 48°10' W 005°09'1222.8
2018-Aug-05 22:00N 48°22' W 005°06'816.5
2018-Aug-05 21:31N 48°28' W 004°59'1122.0
2018-Aug-05 21:01N 48°39' W 004°54'1122.1
2018-Aug-05 20:31N 48°49' W 004°50'1122.3
2018-Aug-05 20:01N 48°60' W 004°44'1122.6
2018-Aug-05 19:30N 49°11' W 004°38'3523.1
2018-Aug-05 18:00N 49°44' W 004°25'1323.4
2018-Aug-05 17:27N 49°56' W 004°19'1223.2
2018-Aug-05 16:56N 50°08' W 004°15'1122.6
2018-Aug-05 16:26N 50°19' W 004°10'3 6.3
2018-Aug-05 16:00N 50°22' W 004°09'0 0.0
2018-Aug-05 15:30N 50°22' W 004°09'0 0.0
2018-Aug-05 15:00N 50°22' W 004°09'0 0.0
2018-Aug-05 14:30N 50°22' W 004°09'1 0.9
2018-Aug-05 13:30N 50°21' W 004°09'815.4
2018-Aug-05 13:01N 50°13' W 004°09'1223.6
2018-Aug-05 12:30N 50°02' W 004°07'1423.4
2018-Aug-05 11:55N 49°48' W 004°06'923.5
2018-Aug-05 11:30N 49°38' W 004°05'  
Track history (hours):
 
Tides and Currents Weather Stations Pressure Air Temp Water Temp Dewpoint Dewpoint Depression Visibility Wind Speed Wind Dir Waves Ship Positions

Pont Aven

Last reported at 2018-Aug-15 11:16 UTC. Time now 2018-Aug-15 14:50 UTC.
Position N 45°13' W 004°17'.

Length 185 m; beam 31 m.

Type: Passenger vessel. MMSI: 228183600.

Date/timePositionNaut miles runAvg speedWind from/ knotsBaromVisibWave heightAir tempDewpointWater temp
2018-Aug-15 11:16N 45°13' W 004°17'17523.1
2018-Aug-15 03:43N 48°04' W 005°10'420.2
2018-Aug-15 03:30N 48°08' W 005°09'1121.3
2018-Aug-15 03:00N 48°19' W 005°08'918.2
2018-Aug-15 02:31N 48°27' W 005°01'1020.1
2018-Aug-15 02:00N 48°34' W 004°51'1224.0
2018-Aug-15 01:31N 48°43' W 004°39'1425.1
2018-Aug-15 00:58N 48°53' W 004°25'3724.1
2018-Aug-14 23:25N 49°21' W 003°47'1022.5
2018-Aug-14 22:58N 49°28' W 003°36'1022.2
2018-Aug-14 22:30N 49°36' W 003°26'1121.3
2018-Aug-14 21:59N 49°45' W 003°15'1020.4
2018-Aug-14 21:31N 49°51' W 003°04'1020.0
2018-Aug-14 21:01N 49°58' W 002°52'1020.3
2018-Aug-14 20:30N 50°01' W 002°37'6122.0
2018-Aug-14 17:43N 50°32' W 001°14'523.5
2018-Aug-14 17:31N 50°35' W 001°08'1018.9
2018-Aug-14 17:00N 50°43' W 000°60'714.2
2018-Aug-14 16:30N 50°49' W 001°07'0 0.8
2018-Aug-14 16:00N 50°49' W 001°06'0 0.0
2018-Aug-14 15:30N 50°49' W 001°06'0 0.0
2018-Aug-14 15:00N 50°49' W 001°06'0 0.0
2018-Aug-14 14:30N 50°49' W 001°06'0 0.0
2018-Aug-14 14:00N 50°49' W 001°06'0 0.0
2018-Aug-14 13:30N 50°49' W 001°06'1 1.7
2018-Aug-14 13:00N 50°48' W 001°07'612.2
2018-Aug-14 12:31N 50°43' W 001°03'917.7
2018-Aug-14 12:00N 50°35' W 001°09'11025.5
2018-Aug-14 07:41N 49°29' W 003°27'4925.2
2018-Aug-14 05:43N 48°54' W 004°21'925.4
2018-Aug-14 05:22N 48°48' W 004°31'925.9
2018-Aug-14 05:01N 48°42' W 004°42'1325.9
2018-Aug-14 04:30N 48°32' W 004°54'918.8
2018-Aug-14 04:01N 48°25' W 005°04'1223.5
2018-Aug-14 03:30N 48°14' W 005°08'1325.1
2018-Aug-14 03:00N 48°01' W 005°09'1224.5
2018-Aug-14 02:30N 47°49' W 005°06'1323.1
2018-Aug-14 01:57N 47°37' W 005°02'1022.9
2018-Aug-14 01:29N 47°26' W 004°58'1523.2
2018-Aug-14 00:51N 47°12' W 004°53'2322.7
2018-Aug-13 23:51N 46°50' W 004°43'822.9
2018-Aug-13 23:29N 46°42' W 004°41'1322.7
2018-Aug-13 22:54N 46°29' W 004°37'1121.9
2018-Aug-13 22:24N 46°18' W 004°34'1021.4
2018-Aug-13 21:57N 46°09' W 004°31'14821.9
2018-Aug-13 15:12N 43°44' W 003°48'519.3
2018-Aug-13 14:55N 43°39' W 003°47'7 1.6
2018-Aug-13 10:11N 43°32' W 003°45'423.5
2018-Aug-13 10:00N 43°36' W 003°46'27623.0
2018-Aug-12 22:00N 48°05' W 005°11'1224.4
2018-Aug-12 21:30N 48°17' W 005°08'1121.2
2018-Aug-12 21:01N 48°27' W 005°02'1020.6
2018-Aug-12 20:31N 48°36' W 004°55'1223.7
2018-Aug-12 20:00N 48°47' W 004°49'9121.8
2018-Aug-12 15:51N 50°14' W 004°12'618.0
2018-Aug-12 15:31N 50°20' W 004°09'1 2.8
2018-Aug-12 15:00N 50°22' W 004°09'0 0.0
2018-Aug-12 14:30N 50°22' W 004°09'0 0.0
2018-Aug-12 14:00N 50°22' W 004°09'0 0.0
2018-Aug-12 13:30N 50°22' W 004°09'0 0.0
2018-Aug-12 13:00N 50°22' W 004°09'0 0.7
2018-Aug-12 12:30N 50°22' W 004°09'713.3
2018-Aug-12 11:58N 50°14' W 004°10'1122.8
2018-Aug-12 11:29N 50°03' W 004°07'2022.2
2018-Aug-12 10:36N 49°44' W 004°06'6010.0
2018-Aug-12 04:36N 48°44' W 003°57'114.3
2018-Aug-12 04:31N 48°45' W 003°57'918.8
2018-Aug-12 04:00N 48°52' W 004°06'1321.9
2018-Aug-12 03:25N 49°01' W 004°21'1521.9
2018-Aug-12 02:44N 49°11' W 004°38'19019.2
2018-Aug-11 16:49N 51°33' W 007°57'619.9
2018-Aug-11 16:31N 51°37' W 008°03'1019.7
2018-Aug-11 16:01N 51°44' W 008°14'612.1
2018-Aug-11 15:30N 51°50' W 008°16'2 4.6
2018-Aug-11 15:00N 51°50' W 008°19'0 0.0
2018-Aug-11 14:30N 51°50' W 008°19'0 0.0
2018-Aug-11 14:00N 51°50' W 008°19'0 0.0
2018-Aug-11 13:30N 51°50' W 008°19'0 0.0
2018-Aug-11 13:00N 51°50' W 008°19'0 0.0
2018-Aug-11 12:30N 51°50' W 008°19'0 0.0
2018-Aug-11 12:00N 51°50' W 008°19'0 0.0
2018-Aug-11 11:30N 51°50' W 008°19'0 0.0
2018-Aug-11 11:00N 51°50' W 008°19'0 0.0
2018-Aug-11 10:30N 51°50' W 008°19'0 0.0
2018-Aug-11 10:00N 51°50' W 008°19'0 0.0
2018-Aug-11 09:30N 51°50' W 008°19'0 0.0
2018-Aug-11 09:00N 51°50' W 008°19'0 0.0
2018-Aug-11 08:30N 51°50' W 008°19'1 2.5
2018-Aug-11 08:00N 51°51' W 008°18'4 7.8
2018-Aug-11 07:31N 51°47' W 008°16'1019.7
2018-Aug-11 07:01N 51°39' W 008°07'1020.7
2018-Aug-11 06:30N 51°32' W 007°54'1020.4
2018-Aug-11 06:01N 51°25' W 007°42'9220.2
2018-Aug-11 01:27N 50°22' W 005°57'73 3.0
2018-Aug-10 00:57N 50°01' W 004°07'917.0
2018-Aug-10 00:24N 50°11' W 004°07'3 4.4
2018-Aug-09 23:49N 50°13' W 004°08'0 1.0
2018-Aug-09 23:19N 50°14' W 004°08'0 0.9
2018-Aug-09 22:54N 50°14' W 004°08'1 1.0
2018-Aug-09 22:25N 50°15' W 004°08'4 4.2
2018-Aug-09 21:35N 50°18' W 004°08'0 4.2
2018-Aug-09 21:30N 50°18' W 004°08'1 1.2
2018-Aug-09 21:00N 50°18' W 004°09'1 1.2
2018-Aug-09 20:30N 50°18' W 004°10'3 6.8
2018-Aug-09 20:01N 50°22' W 004°09'0 0.0
2018-Aug-09 19:30N 50°22' W 004°09'0 0.0
2018-Aug-09 19:01N 50°22' W 004°09'0 0.0
2018-Aug-09 18:30N 50°22' W 004°09'0 0.0
2018-Aug-09 18:01N 50°22' W 004°09'0 0.0
2018-Aug-09 17:30N 50°22' W 004°09'0 0.0
2018-Aug-09 17:00N 50°22' W 004°09'0 0.0
2018-Aug-09 16:31N 50°22' W 004°09'0 0.0
2018-Aug-09 16:01N 50°22' W 004°09'1 2.5
2018-Aug-09 15:30N 50°21' W 004°09'918.0
2018-Aug-09 15:00N 50°12' W 004°13'1223.6
2018-Aug-09 14:31N 50°00' W 004°17'7123.7
2018-Aug-09 11:30N 48°52' W 004°49'1223.7
2018-Aug-09 11:01N 48°41' W 004°54'1223.0
2018-Aug-09 10:30N 48°30' W 004°59'815.5
2018-Aug-09 10:01N 48°24' W 005°05'1223.1
2018-Aug-09 09:31N 48°12' W 005°08'1223.2
2018-Aug-09 09:00N 48°01' W 005°09'1122.9
2018-Aug-09 08:30N 47°50' W 005°04'1222.5
2018-Aug-09 07:59N 47°38' W 005°00'24022.4
2018-Aug-08 21:17N 43°43' W 003°48'623.2
2018-Aug-08 21:00N 43°37' W 003°46'5 1.3
2018-Aug-08 16:53N 43°32' W 003°46'1023.0
2018-Aug-08 16:26N 43°42' W 003°49'25923.1
2018-Aug-08 05:15N 47°55' W 005°07'724.4
2018-Aug-08 04:58N 48°01' W 005°09'1123.9
2018-Aug-08 04:31N 48°12' W 005°10'1223.2
2018-Aug-08 04:00N 48°23' W 005°05'917.6
2018-Aug-08 03:31N 48°30' W 004°57'1122.7
2018-Aug-08 03:01N 48°39' W 004°46'1122.1
2018-Aug-08 02:31N 48°46' W 004°33'9122.4
2018-Aug-07 22:26N 49°54' W 002°59'1124.2
2018-Aug-07 21:59N 50°01' W 002°47'6023.9
2018-Aug-07 19:27N 50°30' W 001°24'1022.8
2018-Aug-07 19:00N 50°35' W 001°10'917.4
2018-Aug-07 18:30N 50°42' W 001°03'612.9
2018-Aug-07 18:01N 50°48' W 001°07'1 1.3
2018-Aug-07 17:30N 50°49' W 001°06'0 0.0
2018-Aug-07 17:00N 50°49' W 001°06'0 0.0
2018-Aug-07 16:30N 50°49' W 001°06'0 0.0
2018-Aug-07 16:00N 50°49' W 001°06'0 0.0
2018-Aug-07 15:30N 50°49' W 001°06'0 0.2
2018-Aug-07 15:00N 50°49' W 001°06'2 5.0
2018-Aug-07 14:30N 50°46' W 001°05'815.7
2018-Aug-07 14:01N 50°40' W 000°58'1122.6
2018-Aug-07 13:31N 50°34' W 001°13'1223.3
2018-Aug-07 13:00N 50°27' W 001°29'1122.9
2018-Aug-07 12:30N 50°20' W 001°42'1122.6
2018-Aug-07 12:00N 50°13' W 001°56'1122.3
2018-Aug-07 11:30N 50°06' W 002°10'1122.0
2018-Aug-07 10:59N 49°58' W 002°22'1021.5
2018-Aug-07 10:30N 49°53' W 002°37'1121.4
2018-Aug-07 10:00N 49°47' W 002°51'1121.6
2018-Aug-07 09:30N 49°41' W 003°04'1122.1
2018-Aug-07 09:00N 49°33' W 003°17'1222.3
2018-Aug-07 08:29N 49°26' W 003°30'1122.3
2018-Aug-07 08:00N 49°19' W 003°42'1222.3
2018-Aug-07 07:28N 49°10' W 003°55'1022.2
2018-Aug-07 07:00N 49°03' W 004°06'1222.3
2018-Aug-07 06:29N 48°55' W 004°19'1122.0
2018-Aug-07 05:58N 48°46' W 004°31'1021.6
2018-Aug-07 05:30N 48°40' W 004°42'1121.6
2018-Aug-07 05:00N 48°32' W 004°54'918.2
2018-Aug-07 04:30N 48°26' W 005°03'1020.6
2018-Aug-07 04:00N 48°16' W 005°08'1122.2
2018-Aug-07 03:30N 48°05' W 005°10'1121.6
2018-Aug-07 03:00N 47°54' W 005°09'1121.9
2018-Aug-07 02:30N 47°43' W 005°06'1122.2
2018-Aug-07 02:00N 47°33' W 005°02'1122.1
2018-Aug-07 01:30N 47°22' W 004°58'1122.3
2018-Aug-07 01:00N 47°11' W 004°54'1322.3
2018-Aug-07 00:24N 46°58' W 004°50'922.4
2018-Aug-07 00:00N 46°49' W 004°47'1122.2
2018-Aug-06 23:30N 46°39' W 004°43'1122.6
2018-Aug-06 23:00N 46°28' W 004°39'1122.8
2018-Aug-06 22:30N 46°16' W 004°36'1423.1
2018-Aug-06 21:53N 46°02' W 004°32'1122.8
2018-Aug-06 21:25N 45°52' W 004°28'1023.0
2018-Aug-06 21:00N 45°43' W 004°26'1123.2
2018-Aug-06 20:30N 45°31' W 004°23'1223.5
2018-Aug-06 20:00N 45°20' W 004°19'1223.4
2018-Aug-06 19:31N 45°08' W 004°16'1223.1
2018-Aug-06 19:00N 44°57' W 004°12'1223.2
2018-Aug-06 18:30N 44°46' W 004°08'1123.1
2018-Aug-06 18:01N 44°35' W 004°05'1523.2
2018-Aug-06 17:23N 44°20' W 004°01'1223.1
2018-Aug-06 16:50N 44°08' W 003°56'1123.4
2018-Aug-06 16:21N 43°57' W 003°53'823.3
2018-Aug-06 16:01N 43°49' W 003°51'1223.2
2018-Aug-06 15:30N 43°38' W 003°47'1017.7
2018-Aug-06 14:55N 43°28' W 003°47'1 2.2
2018-Aug-06 14:28N 43°28' W 003°48'0 0.0
2018-Aug-06 14:00N 43°28' W 003°48'0 0.0
2018-Aug-06 13:30N 43°28' W 003°48'0 0.0
2018-Aug-06 13:00N 43°28' W 003°48'0 0.0
2018-Aug-06 12:30N 43°28' W 003°48'0 0.0
2018-Aug-06 12:00N 43°28' W 003°48'4 3.3
2018-Aug-06 10:42N 43°31' W 003°45'422.1
2018-Aug-06 10:30N 43°35' W 003°46'1122.8
2018-Aug-06 10:01N 43°46' W 003°50'1223.2
2018-Aug-06 09:31N 43°58' W 003°54'1223.2
2018-Aug-06 09:00N 44°09' W 003°58'1122.9
2018-Aug-06 08:31N 44°20' W 004°01'1122.9
2018-Aug-06 08:01N 44°31' W 004°04'1223.0
2018-Aug-06 07:30N 44°43' W 004°08'1223.0
2018-Aug-06 07:00N 44°54' W 004°12'1223.4
2018-Aug-06 06:30N 45°05' W 004°16'1223.4
2018-Aug-06 06:00N 45°17' W 004°19'1223.6
2018-Aug-06 05:31N 45°28' W 004°22'1223.4
2018-Aug-06 05:01N 45°40' W 004°26'1223.2
2018-Aug-06 04:31N 45°51' W 004°29'1223.6
2018-Aug-06 04:01N 46°02' W 004°33'1223.8
2018-Aug-06 03:30N 46°14' W 004°36'1223.9
2018-Aug-06 03:00N 46°26' W 004°39'1223.4
2018-Aug-06 02:30N 46°37' W 004°43'1223.6
2018-Aug-06 02:00N 46°49' W 004°47'1723.4
2018-Aug-06 01:16N 47°06' W 004°53'3923.8
2018-Aug-05 23:39N 47°43' W 005°04'323.8
2018-Aug-05 23:30N 47°47' W 005°05'1224.1
2018-Aug-05 23:00N 47°59' W 005°09'1123.1
2018-Aug-05 22:30N 48°10' W 005°09'1222.8
2018-Aug-05 22:00N 48°22' W 005°06'816.5
2018-Aug-05 21:31N 48°28' W 004°59'1122.0
2018-Aug-05 21:01N 48°39' W 004°54'1122.1
2018-Aug-05 20:31N 48°49' W 004°50'1122.3
2018-Aug-05 20:01N 48°60' W 004°44'1122.6
2018-Aug-05 19:30N 49°11' W 004°38'3523.1
2018-Aug-05 18:00N 49°44' W 004°25'1323.4
2018-Aug-05 17:27N 49°56' W 004°19'1223.2
2018-Aug-05 16:56N 50°08' W 004°15'1122.6
2018-Aug-05 16:26N 50°19' W 004°10'3 6.3
2018-Aug-05 16:00N 50°22' W 004°09'0 0.0
2018-Aug-05 15:30N 50°22' W 004°09'0 0.0
2018-Aug-05 15:00N 50°22' W 004°09'0 0.0
2018-Aug-05 14:30N 50°22' W 004°09'1 0.9
2018-Aug-05 13:30N 50°21' W 004°09'815.4
2018-Aug-05 13:01N 50°13' W 004°09'1223.6
2018-Aug-05 12:30N 50°02' W 004°07'1423.4
2018-Aug-05 11:55N 49°48' W 004°06'923.5
2018-Aug-05 11:30N 49°38' W 004°05'  

Dump ship's entire track history